Al Cenac — WDD5445 — position and weather

sailwx.info

Track history (hours):
 
Tides and Currents Weather Stations Pressure Air Temp Water Temp Dewpoint Dewpoint Depression Visibility Wind Speed Wind Dir Waves Ship Positions

Al Cenac

Owner: Caillou Island Towing Co, Inc., Houma, LA. More information available from US FCC via Universal Licensing System and Coast Guard Vessel Documentation Center.

Last reported at 2016-Aug-29 20:33 UTC. Time now 2016-Aug-29 23:31 UTC.
Position N 40°48' W 073°54'.

; draft 10 m.

Type: Tug. MMSI: 367158530.

Date/timePositionNaut miles runAvg speedWind from/ knotsBaromVisibWave heightAir tempDewpointWater temp
2016-Aug-29 20:33N 40°48' W 073°54'8 8.1
2016-Aug-29 19:34N 40°42' W 074°00'5 5.3
2016-Aug-29 18:33N 40°39' W 074°06'4 1.2
2016-Aug-29 15:18N 40°39' W 074°11'5 7.3
2016-Aug-29 14:33N 40°39' W 074°04'10 4.1
2016-Aug-29 12:03N 40°33' W 074°15'0 0.0
2016-Aug-29 11:33N 40°33' W 074°15'6 6.0
2016-Aug-29 10:32N 40°38' W 074°12'1 0.3
2016-Aug-29 06:18N 40°38' W 074°10'2 0.4
2016-Aug-28 23:32N 40°39' W 074°07'6 6.3
2016-Aug-28 22:33N 40°42' W 073°60'0 0.0
2016-Aug-28 15:33N 40°42' W 074°00'4 4.2
2016-Aug-28 14:34N 40°39' W 074°04'9 4.1
2016-Aug-28 12:23N 40°33' W 074°13'1 0.6
2016-Aug-28 10:33N 40°33' W 074°15'0 0.0
2016-Aug-28 09:34N 40°33' W 074°15'0 0.0
2016-Aug-28 08:33N 40°33' W 074°15'0 0.0
2016-Aug-28 07:29N 40°33' W 074°15'6 6.1
2016-Aug-28 06:33N 40°39' W 074°11'1 1.1
2016-Aug-28 05:33N 40°39' W 074°10'0 0.0
2016-Aug-28 03:23N 40°39' W 074°10'2 0.1
2016-Aug-27 16:33N 40°38' W 074°08'0 0.0
2016-Aug-27 15:33N 40°38' W 074°08'0 0.0
2016-Aug-27 14:33N 40°38' W 074°08'0 0.0
2016-Aug-27 13:33N 40°38' W 074°08'0 0.0
2016-Aug-27 12:33N 40°38' W 074°08'2 1.1
2016-Aug-27 11:10N 40°39' W 074°10'0 0.0
2016-Aug-27 10:21N 40°39' W 074°10'0 0.1
2016-Aug-27 03:12N 40°39' W 074°10'0 0.0
2016-Aug-26 04:33N 40°39' W 074°10'0 0.0
2016-Aug-26 03:33N 40°39' W 074°10'0 0.0
2016-Aug-26 02:33N 40°39' W 074°10'0 0.0
2016-Aug-26 01:33N 40°39' W 074°10'0 0.0
2016-Aug-26 00:33N 40°39' W 074°10'0 0.0
2016-Aug-25 23:33N 40°39' W 074°10'0 0.1
2016-Aug-25 22:33N 40°39' W 074°10'4 1.8
2016-Aug-25 20:33N 40°39' W 074°05'0 0.4
2016-Aug-25 19:29N 40°39' W 074°06'2 2.3
2016-Aug-25 18:32N 40°38' W 074°09'1 1.0
2016-Aug-25 17:33N 40°39' W 074°10'0 0.0
2016-Aug-25 16:33N 40°39' W 074°10'0 0.0
2016-Aug-25 15:32N 40°39' W 074°10'0 0.0
2016-Aug-25 14:33N 40°39' W 074°10'0 0.0
2016-Aug-25 13:33N 40°39' W 074°10'0 0.0
2016-Aug-25 12:33N 40°39' W 074°10'0 0.0
2016-Aug-25 11:33N 40°39' W 074°10'0 0.0
2016-Aug-25 10:33N 40°39' W 074°10'0 0.0
2016-Aug-25 09:33N 40°39' W 074°10'0 0.0
2016-Aug-25 08:33N 40°39' W 074°10'0 0.0
2016-Aug-25 07:32N 40°39' W 074°10'0 0.0
2016-Aug-25 06:33N 40°39' W 074°10'0 0.0
2016-Aug-25 04:33N 40°39' W 074°10'0 0.0
2016-Aug-25 03:26N 40°39' W 074°10'0 0.0
2016-Aug-25 02:34N 40°39' W 074°10'0 0.0
2016-Aug-25 01:33N 40°39' W 074°10'0 0.0
2016-Aug-25 00:33N 40°39' W 074°10'0 0.0
2016-Aug-24 23:33N 40°39' W 074°10'1 0.2
2016-Aug-24 16:31N 40°38' W 074°12'8 8.4
2016-Aug-24 15:33N 40°42' W 074°02'3 2.6
2016-Aug-24 14:33N 40°42' W 073°58'0 0.2
2016-Aug-24 13:33N 40°42' W 073°58'0 0.0
2016-Aug-24 12:33N 40°42' W 073°58'0 0.0
2016-Aug-24 11:33N 40°42' W 073°58'0 0.0
2016-Aug-24 10:33N 40°42' W 073°58'4 3.8
2016-Aug-24 09:33N 40°39' W 074°02'3 2.9
2016-Aug-24 08:33N 40°37' W 074°03'1 1.1
2016-Aug-24 07:33N 40°38' W 074°03'2 2.2
2016-Aug-24 06:33N 40°40' W 074°02'6 0.4
2016-Aug-23 17:30N 40°39' W 074°10'3 3.0
2016-Aug-23 16:33N 40°39' W 074°06'0 0.1
2016-Aug-23 15:32N 40°39' W 074°06'2 2.1
2016-Aug-23 14:33N 40°38' W 074°09'1 1.0
2016-Aug-23 13:33N 40°38' W 074°10'0 0.0
2016-Aug-23 12:33N 40°38' W 074°10'0 0.0
2016-Aug-23 11:33N 40°38' W 074°10'0 0.0
2016-Aug-23 10:33N 40°38' W 074°10'0 0.0
2016-Aug-23 09:34N 40°38' W 074°10'0 0.0
2016-Aug-23 08:33N 40°38' W 074°10'0 0.0
2016-Aug-23 07:33N 40°38' W 074°10'2 1.7
2016-Aug-23 06:33N 40°39' W 074°08'3 2.8
2016-Aug-23 05:34N 40°39' W 074°04'1 1.3
2016-Aug-23 04:33N 40°39' W 074°06'3 3.2
2016-Aug-23 03:33N 40°38' W 074°10'0 0.0
2016-Aug-23 02:33N 40°38' W 074°10'0 0.0
2016-Aug-23 01:33N 40°38' W 074°10'0 0.0
2016-Aug-23 00:33N 40°38' W 074°10'0 0.0
2016-Aug-22 23:05N 40°39' W 074°10'0 0.0
2016-Aug-22 22:32N 40°39' W 074°10'0 0.0
2016-Aug-21 05:33N 40°39' W 074°10'5 5.3
2016-Aug-21 04:33N 40°40' W 074°03'6 6.1
2016-Aug-21 03:33N 40°45' W 073°58'3 0.1
2016-Aug-19 23:33N 40°47' W 073°55'8 8.3
2016-Aug-19 22:33N 40°40' W 074°02'5 5.0
2016-Aug-19 21:33N 40°39' W 074°08'  
Track history (hours):
 
Tides and Currents Weather Stations Pressure Air Temp Water Temp Dewpoint Dewpoint Depression Visibility Wind Speed Wind Dir Waves Ship Positions

Al Cenac

Owner: Caillou Island Towing Co, Inc., Houma, LA. More information available from US FCC via Universal Licensing System and Coast Guard Vessel Documentation Center.

Last reported at 2016-Aug-29 20:33 UTC. Time now 2016-Aug-29 23:31 UTC.
Position N 40°48' W 073°54'.

; draft 10 m.

Type: Tug. MMSI: 367158530.

Date/timePositionNaut miles runAvg speedWind from/ knotsBaromVisibWave heightAir tempDewpointWater temp
2016-Aug-29 20:33N 40°48' W 073°54'8 8.1
2016-Aug-29 19:34N 40°42' W 074°00'5 5.3
2016-Aug-29 18:33N 40°39' W 074°06'4 1.2
2016-Aug-29 15:18N 40°39' W 074°11'5 7.3
2016-Aug-29 14:33N 40°39' W 074°04'10 4.1
2016-Aug-29 12:03N 40°33' W 074°15'0 0.0
2016-Aug-29 11:33N 40°33' W 074°15'6 6.0
2016-Aug-29 10:32N 40°38' W 074°12'1 0.3
2016-Aug-29 06:18N 40°38' W 074°10'2 0.4
2016-Aug-28 23:32N 40°39' W 074°07'6 6.3
2016-Aug-28 22:33N 40°42' W 073°60'0 0.0
2016-Aug-28 15:33N 40°42' W 074°00'4 4.2
2016-Aug-28 14:34N 40°39' W 074°04'9 4.1
2016-Aug-28 12:23N 40°33' W 074°13'1 0.6
2016-Aug-28 10:33N 40°33' W 074°15'0 0.0
2016-Aug-28 09:34N 40°33' W 074°15'0 0.0
2016-Aug-28 08:33N 40°33' W 074°15'0 0.0
2016-Aug-28 07:29N 40°33' W 074°15'6 6.1
2016-Aug-28 06:33N 40°39' W 074°11'1 1.1
2016-Aug-28 05:33N 40°39' W 074°10'0 0.0
2016-Aug-28 03:23N 40°39' W 074°10'2 0.1
2016-Aug-27 16:33N 40°38' W 074°08'0 0.0
2016-Aug-27 15:33N 40°38' W 074°08'0 0.0
2016-Aug-27 14:33N 40°38' W 074°08'0 0.0
2016-Aug-27 13:33N 40°38' W 074°08'0 0.0
2016-Aug-27 12:33N 40°38' W 074°08'2 1.1
2016-Aug-27 11:10N 40°39' W 074°10'0 0.0
2016-Aug-27 10:21N 40°39' W 074°10'0 0.1
2016-Aug-27 03:12N 40°39' W 074°10'0 0.0
2016-Aug-26 04:33N 40°39' W 074°10'0 0.0
2016-Aug-26 03:33N 40°39' W 074°10'0 0.0
2016-Aug-26 02:33N 40°39' W 074°10'0 0.0
2016-Aug-26 01:33N 40°39' W 074°10'0 0.0
2016-Aug-26 00:33N 40°39' W 074°10'0 0.0
2016-Aug-25 23:33N 40°39' W 074°10'0 0.1
2016-Aug-25 22:33N 40°39' W 074°10'4 1.8
2016-Aug-25 20:33N 40°39' W 074°05'0 0.4
2016-Aug-25 19:29N 40°39' W 074°06'2 2.3
2016-Aug-25 18:32N 40°38' W 074°09'1 1.0
2016-Aug-25 17:33N 40°39' W 074°10'0 0.0
2016-Aug-25 16:33N 40°39' W 074°10'0 0.0
2016-Aug-25 15:32N 40°39' W 074°10'0 0.0
2016-Aug-25 14:33N 40°39' W 074°10'0 0.0
2016-Aug-25 13:33N 40°39' W 074°10'0 0.0
2016-Aug-25 12:33N 40°39' W 074°10'0 0.0
2016-Aug-25 11:33N 40°39' W 074°10'0 0.0
2016-Aug-25 10:33N 40°39' W 074°10'0 0.0
2016-Aug-25 09:33N 40°39' W 074°10'0 0.0
2016-Aug-25 08:33N 40°39' W 074°10'0 0.0
2016-Aug-25 07:32N 40°39' W 074°10'0 0.0
2016-Aug-25 06:33N 40°39' W 074°10'0 0.0
2016-Aug-25 04:33N 40°39' W 074°10'0 0.0
2016-Aug-25 03:26N 40°39' W 074°10'0 0.0
2016-Aug-25 02:34N 40°39' W 074°10'0 0.0
2016-Aug-25 01:33N 40°39' W 074°10'0 0.0
2016-Aug-25 00:33N 40°39' W 074°10'0 0.0
2016-Aug-24 23:33N 40°39' W 074°10'1 0.2
2016-Aug-24 16:31N 40°38' W 074°12'8 8.4
2016-Aug-24 15:33N 40°42' W 074°02'3 2.6
2016-Aug-24 14:33N 40°42' W 073°58'0 0.2
2016-Aug-24 13:33N 40°42' W 073°58'0 0.0
2016-Aug-24 12:33N 40°42' W 073°58'0 0.0
2016-Aug-24 11:33N 40°42' W 073°58'0 0.0
2016-Aug-24 10:33N 40°42' W 073°58'4 3.8
2016-Aug-24 09:33N 40°39' W 074°02'3 2.9
2016-Aug-24 08:33N 40°37' W 074°03'1 1.1
2016-Aug-24 07:33N 40°38' W 074°03'2 2.2
2016-Aug-24 06:33N 40°40' W 074°02'6 0.4
2016-Aug-23 17:30N 40°39' W 074°10'3 3.0
2016-Aug-23 16:33N 40°39' W 074°06'0 0.1
2016-Aug-23 15:32N 40°39' W 074°06'2 2.1
2016-Aug-23 14:33N 40°38' W 074°09'1 1.0
2016-Aug-23 13:33N 40°38' W 074°10'0 0.0
2016-Aug-23 12:33N 40°38' W 074°10'0 0.0
2016-Aug-23 11:33N 40°38' W 074°10'0 0.0
2016-Aug-23 10:33N 40°38' W 074°10'0 0.0
2016-Aug-23 09:34N 40°38' W 074°10'0 0.0
2016-Aug-23 08:33N 40°38' W 074°10'0 0.0
2016-Aug-23 07:33N 40°38' W 074°10'2 1.7
2016-Aug-23 06:33N 40°39' W 074°08'3 2.8
2016-Aug-23 05:34N 40°39' W 074°04'1 1.3
2016-Aug-23 04:33N 40°39' W 074°06'3 3.2
2016-Aug-23 03:33N 40°38' W 074°10'0 0.0
2016-Aug-23 02:33N 40°38' W 074°10'0 0.0
2016-Aug-23 01:33N 40°38' W 074°10'0 0.0
2016-Aug-23 00:33N 40°38' W 074°10'0 0.0
2016-Aug-22 23:05N 40°39' W 074°10'0 0.0
2016-Aug-22 22:32N 40°39' W 074°10'0 0.0
2016-Aug-21 05:33N 40°39' W 074°10'5 5.3
2016-Aug-21 04:33N 40°40' W 074°03'6 6.1
2016-Aug-21 03:33N 40°45' W 073°58'3 0.1
2016-Aug-19 23:33N 40°47' W 073°55'8 8.3
2016-Aug-19 22:33N 40°40' W 074°02'5 5.0
2016-Aug-19 21:33N 40°39' W 074°08'  

Dump ship's entire track history